createdAt,value
2023-02-14T00:04:57.232Z,14.50
2023-02-14T00:10:00.068Z,10.90
2023-02-14T00:15:21.511Z,11.60
2023-02-14T00:20:24.708Z,11.20
2023-02-14T00:25:27.487Z,11.50
2023-02-14T00:30:30.351Z,16.40
2023-02-14T00:35:33.201Z,11.80
2023-02-14T00:40:35.910Z,13.40
2023-02-14T00:45:38.707Z,9.60
2023-02-14T00:50:41.409Z,8.90
2023-02-14T00:55:46.326Z,14.40
2023-02-14T01:00:49.100Z,14.50
2023-02-14T01:05:52.347Z,9.90
2023-02-14T01:10:55.036Z,14.50
2023-02-14T01:15:57.829Z,11.30
2023-02-14T01:21:23.232Z,14.20
2023-02-14T01:26:27.359Z,12.50
2023-02-14T01:31:32.457Z,19.50
2023-02-14T01:36:38.617Z,11.60
2023-02-14T01:41:43.873Z,10.50
2023-02-14T01:46:47.114Z,14.60
2023-02-14T01:51:54.544Z,15.40
2023-02-14T01:57:05.222Z,12.60
2023-02-14T02:02:08.542Z,12.80
2023-02-14T02:07:17.919Z,10.20
2023-02-14T02:12:20.983Z,16.50
2023-02-14T02:17:34.979Z,14.40
2023-02-14T02:22:58.641Z,14.30
2023-02-14T02:28:23.310Z,11.30
2023-02-14T02:33:38.167Z,21.40
2023-02-14T02:39:03.399Z,14.50
2023-02-14T02:44:29.427Z,11.30
2023-02-14T02:50:12.093Z,10.80
2023-02-14T02:55:25.843Z,20.10
2023-02-14T03:00:30.237Z,14.70
2023-02-14T03:05:34.938Z,13.80
2023-02-14T03:10:39.583Z,12.50
2023-02-14T03:16:05.586Z,12.30
2023-02-14T03:21:31.112Z,15.20
2023-02-14T03:26:36.057Z,15.80
2023-02-14T03:32:11.189Z,12.50
2023-02-14T03:37:24.491Z,15.30
2023-02-14T03:42:35.135Z,13.70
2023-02-14T03:47:42.408Z,17.10
2023-02-14T03:52:49.153Z,16.80
2023-02-14T03:57:59.366Z,12.10
2023-02-14T04:03:06.791Z,10.80
2023-02-14T04:08:11.580Z,10.80
2023-02-14T04:13:14.282Z,19.80
2023-02-14T04:18:35.557Z,15.40
2023-02-14T04:23:38.252Z,12.40
2023-02-14T04:28:40.993Z,12.50
2023-02-14T04:33:46.154Z,14.50
2023-02-14T04:38:48.904Z,13.20
2023-02-14T04:43:51.604Z,10.60
2023-02-14T04:48:54.295Z,18.00
2023-02-14T04:53:56.953Z,13.30
2023-02-14T04:58:59.801Z,9.20
2023-02-14T05:04:02.909Z,20.70
2023-02-14T05:09:06.270Z,16.70
2023-02-14T05:14:09.057Z,11.50
2023-02-14T05:19:11.902Z,7.90
2023-02-14T05:24:14.593Z,13.10
2023-02-14T05:29:17.424Z,17.80
2023-02-14T05:34:21.690Z,13.70
2023-02-14T05:39:24.666Z,11.10
2023-02-14T05:44:27.388Z,17.90
2023-02-14T05:49:30.060Z,17.10
2023-02-14T05:54:32.866Z,11.40
2023-02-14T05:59:35.672Z,12.30
2023-02-14T06:04:38.426Z,15.40
2023-02-14T06:09:41.184Z,19.60
2023-02-14T06:14:45.126Z,21.00
2023-02-14T06:19:47.903Z,14.30
2023-02-14T06:24:50.590Z,16.10
2023-02-14T06:29:53.305Z,18.90
2023-02-14T06:34:55.999Z,22.60
2023-02-14T06:39:58.767Z,13.00
2023-02-14T06:45:02.640Z,14.90
2023-02-14T06:50:06.525Z,11.90
2023-02-14T06:55:09.633Z,23.50
2023-02-14T07:00:14.811Z,16.60
2023-02-14T07:05:19.166Z,12.80
2023-02-14T07:10:22.243Z,14.30
2023-02-14T07:15:25.265Z,18.20
2023-02-14T07:20:28.280Z,15.10
2023-02-14T07:25:31.139Z,18.60
2023-02-14T07:30:34.171Z,22.20
2023-02-14T07:35:37.087Z,18.80
2023-02-14T07:40:39.772Z,14.10
2023-02-14T07:45:42.631Z,16.80
2023-02-14T07:50:45.651Z,14.50
2023-02-14T07:55:51.390Z,13.70
2023-02-14T08:00:57.331Z,20.60
2023-02-14T08:06:01.762Z,16.70
2023-02-14T08:11:04.573Z,18.40
2023-02-14T08:16:11.827Z,17.50
2023-02-14T08:21:17.035Z,18.10
2023-02-14T08:26:19.839Z,13.90
2023-02-14T08:31:34.500Z,15.70
2023-02-14T08:36:47.114Z,20.60
2023-02-14T08:41:51.698Z,22.30
2023-02-14T08:47:18.206Z,20.10
2023-02-14T08:52:24.246Z,16.80
2023-02-14T08:57:27.864Z,17.50
2023-02-14T09:02:30.550Z,14.70
2023-02-14T09:07:33.480Z,15.90
2023-02-14T09:12:39.783Z,19.90
2023-02-14T09:17:42.564Z,23.80
2023-02-14T09:22:47.079Z,15.00
2023-02-14T09:27:51.500Z,16.70
2023-02-14T09:32:55.038Z,20.10
2023-02-14T09:38:16.977Z,16.60
2023-02-14T09:43:37.200Z,20.20
2023-02-14T09:48:46.425Z,32.60
2023-02-14T09:53:52.948Z,34.10
2023-02-14T09:59:07.619Z,20.30
2023-02-14T10:04:22.920Z,19.90
2023-02-14T10:09:54.392Z,23.00
2023-02-14T10:15:00.970Z,22.20
2023-02-14T10:20:22.168Z,25.80
2023-02-14T10:25:31.136Z,17.40
2023-02-14T10:30:39.561Z,19.20
2023-02-14T10:35:55.634Z,14.70
2023-02-14T10:41:34.040Z,18.10
2023-02-14T10:46:54.277Z,21.80
2023-02-14T10:52:24.941Z,16.80
2023-02-14T10:57:57.479Z,16.00
2023-02-14T11:03:05.511Z,18.40
2023-02-14T11:08:35.921Z,15.80
2023-02-14T11:13:39.826Z,15.00
2023-02-14T11:18:42.808Z,14.10
2023-02-14T11:23:48.469Z,15.80
2023-02-14T11:28:58.071Z,13.50
2023-02-14T11:34:04.991Z,16.10
2023-02-14T11:39:24.656Z,15.20
2023-02-14T11:44:29.859Z,15.50
2023-02-14T11:49:34.695Z,14.80
2023-02-14T11:54:40.566Z,14.70
2023-02-14T11:59:50.946Z,15.10
2023-02-14T12:05:01.722Z,13.60
2023-02-14T12:10:16.698Z,15.40
2023-02-14T12:15:35.404Z,11.50
2023-02-14T12:20:52.680Z,12.40
2023-02-14T12:26:15.294Z,13.00
2023-02-14T12:31:19.056Z,9.90
2023-02-14T12:37:16.765Z,11.60
2023-02-14T12:42:49.038Z,13.20
2023-02-14T12:48:20.070Z,15.80
2023-02-14T12:53:25.680Z,9.40
2023-02-14T12:58:42.713Z,13.00
2023-02-14T13:04:12.010Z,14.50
2023-02-14T13:09:27.512Z,10.70
2023-02-14T13:14:36.790Z,10.30
2023-02-14T13:19:47.910Z,9.30
2023-02-14T13:24:55.180Z,8.70
2023-02-14T13:30:02.306Z,7.80
2023-02-14T13:35:09.022Z,7.80
2023-02-14T13:40:20.554Z,10.80
2023-02-14T13:45:29.369Z,9.40
2023-02-14T13:50:37.022Z,9.20
2023-02-14T13:55:44.428Z,10.50
2023-02-14T14:00:48.991Z,14.30
2023-02-14T14:06:14.086Z,13.20
2023-02-14T14:11:21.502Z,17.90
2023-02-14T14:16:24.537Z,22.20
2023-02-14T14:21:34.839Z,9.80
2023-02-14T14:26:45.084Z,12.80
2023-02-14T14:31:52.091Z,16.70
2023-02-14T14:37:03.257Z,12.50
2023-02-14T14:42:13.317Z,14.20
2023-02-14T14:47:43.432Z,12.90
2023-02-14T14:52:49.946Z,14.90
2023-02-14T14:57:58.790Z,19.00
2023-02-14T15:03:28.757Z,12.80
2023-02-14T15:08:32.293Z,14.90
2023-02-14T15:13:49.575Z,8.70
2023-02-14T15:18:57.772Z,10.10
2023-02-14T15:24:03.118Z,8.30
2023-02-14T15:29:07.500Z,9.30
2023-02-14T15:34:12.214Z,12.50
2023-02-14T15:39:16.629Z,14.40
2023-02-14T15:44:24.265Z,15.40
2023-02-14T15:49:40.987Z,13.60
2023-02-14T15:54:46.705Z,12.20
2023-02-14T15:59:50.018Z,13.50
2023-02-14T16:04:53.126Z,24.70
2023-02-14T16:10:20.743Z,29.50
2023-02-14T16:15:26.947Z,30.80
2023-02-14T16:20:35.578Z,75.10
2023-02-14T16:25:38.241Z,49.10
2023-02-14T16:30:42.860Z,43.30
2023-02-14T16:35:46.447Z,34.30
2023-02-14T16:40:54.624Z,28.30
2023-02-14T16:45:57.469Z,19.70
2023-02-14T16:51:00.552Z,18.00
2023-02-14T16:56:03.554Z,16.50
2023-02-14T17:01:06.240Z,17.00
2023-02-14T17:06:13.345Z,14.20
2023-02-14T17:11:16.409Z,14.50
2023-02-14T17:16:19.224Z,12.90
2023-02-14T17:21:23.310Z,14.60
2023-02-14T17:26:26.010Z,19.10
2023-02-14T17:31:28.836Z,21.10
2023-02-14T17:36:32.433Z,16.70
2023-02-14T17:41:35.233Z,14.30
2023-02-14T17:46:37.972Z,17.70
2023-02-14T17:51:41.259Z,20.20
2023-02-14T17:56:44.044Z,13.40
2023-02-14T18:01:46.770Z,14.40
2023-02-14T18:06:49.542Z,15.60
2023-02-14T18:11:52.359Z,22.70
2023-02-14T18:16:55.047Z,18.10
2023-02-14T18:21:57.738Z,23.80
2023-02-14T18:27:00.648Z,17.70
2023-02-14T18:32:05.002Z,21.40
2023-02-14T18:37:07.778Z,24.50
2023-02-14T18:42:10.558Z,27.70
2023-02-14T18:47:13.278Z,35.10
2023-02-14T18:52:16.258Z,39.40
2023-02-14T18:57:19.302Z,32.80
2023-02-14T19:02:22.129Z,32.60
2023-02-14T19:07:25.540Z,28.70
2023-02-14T19:12:33.248Z,37.60
2023-02-14T19:17:38.082Z,33.90
2023-02-14T19:22:41.877Z,40.00
2023-02-14T19:27:44.542Z,36.80
2023-02-14T19:32:47.577Z,36.40
2023-02-14T19:37:55.440Z,43.60
2023-02-14T19:42:58.368Z,36.10
2023-02-14T19:48:03.587Z,25.50
2023-02-14T19:53:06.596Z,20.10
2023-02-14T19:58:09.285Z,24.80
2023-02-14T20:03:11.989Z,23.50
2023-02-14T20:08:14.672Z,27.10
2023-02-14T20:13:17.389Z,36.00
2023-02-14T20:18:20.072Z,34.00
2023-02-14T20:23:22.753Z,37.00
2023-02-14T20:28:25.492Z,36.50
2023-02-14T20:33:28.185Z,32.50
2023-02-14T20:38:32.722Z,31.60
2023-02-14T20:43:35.893Z,35.90
2023-02-14T20:48:38.652Z,31.50
2023-02-14T20:53:42.405Z,30.20
2023-02-14T20:58:45.217Z,21.90
2023-02-14T21:03:50.966Z,19.30
2023-02-14T21:08:54.340Z,16.40
2023-02-14T21:13:59.853Z,16.30
2023-02-14T21:19:04.254Z,28.90
2023-02-14T21:24:14.560Z,22.30
2023-02-14T21:29:17.591Z,18.80
2023-02-14T21:34:20.534Z,28.80
2023-02-14T21:39:27.648Z,26.60
2023-02-14T21:44:48.986Z,22.80
2023-02-14T21:50:27.210Z,25.10
2023-02-14T21:55:29.910Z,20.40
2023-02-14T22:00:32.581Z,20.40
2023-02-14T22:05:35.305Z,28.60
2023-02-14T22:10:40.869Z,20.90
2023-02-14T22:15:43.601Z,24.00
2023-02-14T22:20:46.498Z,35.10
2023-02-14T22:25:49.378Z,29.70
2023-02-14T22:30:52.098Z,16.90
2023-02-14T22:35:56.373Z,21.00
2023-02-14T22:41:11.686Z,16.70
2023-02-14T22:46:20.413Z,15.50
2023-02-14T22:51:32.258Z,26.20
2023-02-14T22:56:40.572Z,21.10
2023-02-14T23:01:43.744Z,22.40
2023-02-14T23:06:46.585Z,20.60
2023-02-14T23:11:51.037Z,18.20
2023-02-14T23:17:12.265Z,16.80
2023-02-14T23:22:19.569Z,23.20
2023-02-14T23:27:26.089Z,22.70
2023-02-14T23:32:28.939Z,19.40
2023-02-14T23:37:31.862Z,20.60
2023-02-14T23:42:34.680Z,17.90
2023-02-14T23:47:37.542Z,17.70
2023-02-14T23:52:41.984Z,26.00
2023-02-14T23:57:44.828Z,23.20
